Time;durP1;ratioP1;P1;durP2;ratioP2;P2;SDS_P1;SDS_P2;PMS_P1;PMS_P2;Temp;Humidity;BMP_temperature;BMP_pressure;BME280_temperature;BME280_humidity;BME280_pressure;Samples;Min_cycle;Max_cycle;Signal;HPM_P1;HPM_P2
2024/04/03 00:00:00;;;;;;;5.47;1.40;;;13.10;77.10;;;;;;5067565;28;20029;-57
2024/04/03 00:02:26;;;;;;;5.60;1.20;;;13.10;77.30;;;;;;5067642;28;20021;-57
2024/04/03 00:04:52;;;;;;;4.05;1.42;;;13.00;77.50;;;;;;5067481;28;20090;-57
2024/04/03 00:07:18;;;;;;;5.25;1.77;;;13.00;77.60;;;;;;5066309;28;20033;-57
2024/04/03 00:09:43;;;;;;;4.40;1.30;;;13.00;77.60;;;;;;5049499;28;20029;-57
2024/04/03 00:12:09;;;;;;;3.75;1.17;;;13.00;77.70;;;;;;5067547;28;20036;-57
2024/04/03 00:14:35;;;;;;;6.10;1.30;;;12.90;77.80;;;;;;5067611;28;20037;-57
2024/04/03 00:17:01;;;;;;;5.00;1.40;;;12.90;77.90;;;;;;5067522;28;20029;-57
2024/04/03 00:19:26;;;;;;;3.80;1.02;;;12.90;77.70;;;;;;5065959;28;20452;-57
2024/04/03 00:21:52;;;;;;;7.85;1.40;;;12.90;78.60;;;;;;5066031;28;20051;-57
2024/04/03 00:24:17;;;;;;;5.40;1.15;;;12.80;78.00;;;;;;5065793;28;20158;-57
2024/04/03 00:26:43;;;;;;;2.70;1.73;;;12.80;78.00;;;;;;5067063;28;20021;-57
2024/04/03 00:29:09;;;;;;;3.40;1.35;;;12.80;78.10;;;;;;5067485;28;20380;-57
2024/04/03 00:31:36;;;;;;;7.93;1.42;;;12.80;78.20;;;;;;5067281;28;20041;-57
2024/04/03 00:34:02;;;;;;;3.03;1.20;;;12.70;78.10;;;;;;5067090;28;20064;-57
2024/04/03 00:36:28;;;;;;;5.72;1.13;;;12.70;78.50;;;;;;5049270;28;20033;-57
2024/04/03 00:38:54;;;;;;;5.07;1.35;;;12.70;78.60;;;;;;5048972;28;20037;-57
2024/04/03 00:41:20;;;;;;;2.45;1.00;;;12.70;78.50;;;;;;5066814;28;20037;-57
2024/04/03 00:43:45;;;;;;;5.70;1.65;;;12.70;78.30;;;;;;5048952;28;20056;-57
2024/04/03 00:46:11;;;;;;;4.28;1.05;;;12.60;78.30;;;;;;5066684;28;20033;-57
2024/04/03 00:48:36;;;;;;;3.55;1.13;;;12.60;78.60;;;;;;5060778;28;20453;-57
2024/04/03 00:51:02;;;;;;;2.95;1.20;;;12.60;78.60;;;;;;5044362;28;20018;-56
2024/04/03 00:53:28;;;;;;;3.30;1.17;;;12.60;78.60;;;;;;5061761;28;20029;-57
2024/04/03 00:55:54;;;;;;;4.00;0.98;;;12.60;78.50;;;;;;5046636;28;20033;-57
2024/04/03 00:58:19;;;;;;;3.35;1.55;;;12.60;78.60;;;;;;5044578;28;20033;-57
2024/04/03 01:00:45;;;;;;;3.03;1.30;;;12.50;78.60;;;;;;5045205;28;20025;-57
2024/04/03 01:03:11;;;;;;;3.63;1.10;;;12.50;78.70;;;;;;5028672;28;20128;-57
2024/04/03 01:05:36;;;;;;;3.05;0.90;;;12.50;78.80;;;;;;5028229;28;20080;-57
2024/04/03 01:08:02;;;;;;;2.03;0.90;;;12.40;78.80;;;;;;5044714;28;20037;-57
2024/04/03 01:10:28;;;;;;;1.67;1.08;;;12.40;79.00;;;;;;5046166;28;20033;-57
2024/04/03 01:12:54;;;;;;;5.25;1.30;;;12.40;79.00;;;;;;5028488;28;20049;-57
2024/04/03 01:15:20;;;;;;;2.30;1.17;;;12.40;79.00;;;;;;5035206;28;20029;-57
2024/04/03 01:17:46;;;;;;;3.13;1.00;;;12.30;79.00;;;;;;5061526;28;20060;-57
2024/04/03 01:20:12;;;;;;;1.75;0.90;;;12.40;79.10;;;;;;5045006;28;20030;-57
2024/04/03 01:22:38;;;;;;;2.10;1.17;;;12.30;79.00;;;;;;5060980;28;20342;-57
2024/04/03 01:25:04;;;;;;;1.98;0.90;;;12.20;79.20;;;;;;5044028;28;20048;-57
2024/04/03 01:27:30;;;;;;;5.28;1.20;;;12.20;79.30;;;;;;5061241;28;20051;-57
2024/04/03 01:29:55;;;;;;;2.47;1.20;;;12.20;79.50;;;;;;5061086;28;20065;-57
2024/04/03 01:32:23;;;;;;;1.52;0.85;;;12.20;79.50;;;;;;5061172;28;20021;-57
2024/04/03 01:34:50;;;;;;;2.78;1.00;;;12.20;79.50;;;;;;5045461;28;20060;-57
2024/04/03 01:37:17;;;;;;;1.55;0.90;;;12.10;79.50;;;;;;5060671;28;20036;-57
2024/04/03 01:39:43;;;;;;;3.55;1.40;;;12.10;79.60;;;;;;5044513;28;20349;-57
2024/04/03 01:42:09;;;;;;;4.05;1.13;;;12.10;79.70;;;;;;5044128;28;20037;-57
2024/04/03 01:44:35;;;;;;;2.08;0.90;;;12.10;79.70;;;;;;5045544;28;20051;-58
2024/04/03 01:47:01;;;;;;;2.17;1.02;;;12.10;79.70;;;;;;5060791;28;20088;-57
2024/04/03 01:49:26;;;;;;;1.92;0.73;;;12.00;79.80;;;;;;5060849;28;20083;-57
2024/04/03 01:51:52;;;;;;;1.92;0.90;;;12.00;79.80;;;;;;5045319;28;20037;-57
2024/04/03 01:54:17;;;;;;;4.25;1.20;;;12.00;79.90;;;;;;5045396;28;20029;-57
2024/04/03 01:56:43;;;;;;;2.60;1.08;;;12.00;80.00;;;;;;5045289;28;20048;-57
2024/04/03 01:59:09;;;;;;;3.08;1.20;;;11.90;80.00;;;;;;5061083;28;20494;-57
2024/04/03 02:01:34;;;;;;;2.80;1.00;;;11.90;80.10;;;;;;5060872;28;20037;-57
2024/04/03 02:04:00;;;;;;;2.95;1.05;;;11.90;80.20;;;;;;5047553;28;20053;-57
2024/04/03 02:06:25;;;;;;;2.78;1.25;;;11.90;80.30;;;;;;5044078;28;20071;-57
2024/04/03 02:08:51;;;;;;;1.40;1.00;;;11.90;80.30;;;;;;5061474;28;20053;-57
2024/04/03 02:11:17;;;;;;;0.98;0.65;;;11.80;80.30;;;;;;5060786;28;20091;-57
2024/04/03 02:13:42;;;;;;;2.20;1.00;;;11.80;80.40;;;;;;5061410;28;20030;-57
2024/04/03 02:16:08;;;;;;;2.42;1.20;;;11.80;80.50;;;;;;5045255;28;20017;-57
2024/04/03 02:18:33;;;;;;;1.83;1.02;;;11.80;80.50;;;;;;5060482;28;20030;-57
2024/04/03 02:20:59;;;;;;;2.20;0.85;;;11.80;80.50;;;;;;5045058;28;20014;-57
2024/04/03 02:23:25;;;;;;;1.95;1.00;;;11.70;80.40;;;;;;5060148;28;20476;-57
2024/04/03 02:25:50;;;;;;;2.35;0.85;;;11.70;80.50;;;;;;5060197;28;20101;-57
2024/04/03 02:28:16;;;;;;;2.55;1.00;;;11.70;80.60;;;;;;5043359;28;20095;-57
2024/04/03 02:30:41;;;;;;;1.88;0.88;;;11.70;80.70;;;;;;5045177;28;20036;-57
2024/04/03 02:33:07;;;;;;;1.27;0.93;;;11.70;80.70;;;;;;5043630;28;20048;-57
2024/04/03 02:35:33;;;;;;;2.10;0.90;;;11.70;80.60;;;;;;5044642;28;20034;-57
2024/04/03 02:37:58;;;;;;;2.58;0.90;;;11.60;80.70;;;;;;5043298;28;20058;-57
2024/04/03 02:40:24;;;;;;;1.08;0.80;;;11.60;80.80;;;;;;5043019;28;20033;-57
2024/04/03 02:42:49;;;;;;;2.58;0.90;;;11.60;80.90;;;;;;5059724;28;20048;-57
2024/04/03 02:45:15;;;;;;;2.85;1.02;;;11.60;80.90;;;;;;5060009;28;20025;-57
2024/04/03 02:47:41;;;;;;;2.25;0.93;;;11.60;81.00;;;;;;5043038;28;20032;-57
2024/04/03 02:50:06;;;;;;;1.33;1.00;;;11.60;81.00;;;;;;5042957;28;20037;-57
2024/04/03 02:52:32;;;;;;;2.00;1.00;;;11.60;81.00;;;;;;5060003;28;20025;-57
2024/04/03 02:55:00;;;;;;;2.45;1.27;;;11.50;81.10;;;;;;5059985;28;20033;-57
2024/04/03 02:57:25;;;;;;;2.13;1.10;;;11.50;81.30;;;;;;5059800;28;20083;-57
2024/04/03 02:59:51;;;;;;;1.33;0.90;;;11.50;81.30;;;;;;5044692;28;20044;-57
2024/04/03 03:02:16;;;;;;;1.55;0.80;;;11.50;81.40;;;;;;5044638;28;20049;-57
2024/04/03 03:04:43;;;;;;;2.92;0.88;;;11.50;81.50;;;;;;5043071;28;20056;-57
2024/04/03 03:07:09;;;;;;;1.17;0.90;;;11.40;81.50;;;;;;5059394;28;20068;-57
2024/04/03 03:09:35;;;;;;;2.95;1.08;;;11.40;81.60;;;;;;5059522;28;20111;-57
2024/04/03 03:12:01;;;;;;;1.95;0.90;;;11.40;81.60;;;;;;5059735;28;20025;-57
2024/04/03 03:14:26;;;;;;;2.25;1.10;;;11.30;81.80;;;;;;5043639;28;20429;-57
2024/04/03 03:16:52;;;;;;;1.38;0.85;;;11.30;81.90;;;;;;5044276;28;20064;-57
2024/04/03 03:19:18;;;;;;;2.80;0.95;;;11.30;82.00;;;;;;5059549;28;20520;-57
2024/04/03 03:21:43;;;;;;;1.73;1.10;;;11.30;82.10;;;;;;5044218;28;20030;-57
2024/04/03 03:24:09;;;;;;;1.33;0.80;;;11.30;82.20;;;;;;5059534;28;20030;-57
2024/04/03 03:26:34;;;;;;;1.67;1.00;;;11.30;82.20;;;;;;5059163;28;20179;-57
2024/04/03 03:29:00;;;;;;;1.08;0.80;;;11.30;82.10;;;;;;5059264;28;20040;-57
2024/04/03 03:31:28;;;;;;;1.30;0.80;;;11.30;82.20;;;;;;5044196;28;20081;-57
2024/04/03 03:33:54;;;;;;;2.22;1.30;;;11.30;82.20;;;;;;5044188;28;20125;-57
2024/04/03 03:36:19;;;;;;;1.90;1.40;;;11.20;82.20;;;;;;5059385;28;20494;-57
2024/04/03 03:38:45;;;;;;;3.38;1.38;;;11.20;82.20;;;;;;5044118;28;20030;-58
2024/04/03 03:41:11;;;;;;;2.45;0.98;;;11.30;82.30;;;;;;5059278;28;20384;-57
2024/04/03 03:43:36;;;;;;;2.08;1.40;;;11.20;82.30;;;;;;5043915;28;20087;-57
2024/04/03 03:46:02;;;;;;;3.60;1.40;;;11.20;82.40;;;;;;5042477;28;20370;-57
2024/04/03 03:53:57;;;;;;;3.60;1.42;;;11.20;82.50;;;;;;5056752;28;20036;-57
2024/04/03 03:56:23;;;;;;;2.58;1.40;;;11.10;82.60;;;;;;5059249;28;20037;-57
2024/04/03 03:58:49;;;;;;;2.00;1.30;;;11.20;82.80;;;;;;5043632;28;20040;-57
2024/04/03 04:01:14;;;;;;;3.55;1.50;;;11.20;82.80;;;;;;5043724;28;20037;-57
2024/04/03 04:03:40;;;;;;;4.55;1.50;;;11.10;82.90;;;;;;5043789;28;20029;-57
2024/04/03 04:06:06;;;;;;;3.78;1.33;;;11.20;82.90;;;;;;5058754;28;20036;-57
2024/04/03 04:08:31;;;;;;;5.28;1.65;;;11.10;82.90;;;;;;5043628;28;20061;-57
2024/04/03 04:10:58;;;;;;;3.58;1.42;;;11.10;83.10;;;;;;5043718;28;20342;-60
2024/04/03 04:13:23;;;;;;;2.80;1.40;;;11.10;83.20;;;;;;5058573;28;20025;-59
2024/04/03 04:15:49;;;;;;;2.40;1.50;;;11.10;83.20;;;;;;5043559;28;20029;-59
2024/04/03 04:18:15;;;;;;;3.40;1.30;;;11.10;83.30;;;;;;5043647;28;20070;-60
2024/04/03 04:20:55;;;;;;;4.50;1.63;;;11.10;83.50;;;;;;5042236;28;20095;-60
2024/04/03 04:23:21;;;;;;;3.08;1.60;;;11.10;83.50;;;;;;5057326;28;20460;-57
2024/04/03 04:26:01;;;;;;;2.10;1.50;;;11.10;83.60;;;;;;5061711;28;20033;-57
2024/04/03 04:28:27;;;;;;;4.07;1.48;;;11.10;83.70;;;;;;5061718;28;20068;-57
2024/04/03 04:31:00;;;;;;;2.78;1.40;;;11.10;83.80;;;;;;5045633;28;20026;-57
2024/04/03 04:33:27;;;;;;;3.53;1.40;;;11.10;83.70;;;;;;5061133;28;20163;-57
2024/04/03 04:35:54;;;;;;;2.70;1.48;;;11.10;83.80;;;;;;5046400;28;20067;-57
2024/04/03 04:38:20;;;;;;;3.65;1.40;;;11.10;83.80;;;;;;5062117;28;20095;-58
2024/04/03 04:40:56;;;;;;;2.33;1.30;;;11.10;83.80;;;;;;5062071;28;20034;-57
2024/04/03 04:43:22;;;;;;;2.92;1.48;;;11.10;83.90;;;;;;5047419;28;20037;-57
2024/04/03 04:45:58;;;;;;;3.58;1.48;;;11.10;84.00;;;;;;5046821;28;20037;-57
2024/04/03 04:48:27;;;;;;;6.70;1.50;;;11.10;83.90;;;;;;5062153;28;20041;-57
2024/04/03 04:50:54;;;;;;;2.97;1.58;;;11.10;84.00;;;;;;5062020;28;20030;-57
2024/04/03 04:53:20;;;;;;;2.25;1.35;;;11.10;84.10;;;;;;5061934;28;20049;-57
2024/04/03 04:56:00;;;;;;;3.10;1.50;;;11.10;84.10;;;;;;5046791;28;20065;-57
2024/04/03 04:58:26;;;;;;;9.05;2.05;;;11.10;84.20;;;;;;5046168;28;20037;-57
2024/04/03 05:01:02;;;;;;;2.15;1.40;;;11.10;84.40;;;;;;5059652;28;20151;-57
2024/04/03 05:03:28;;;;;;;3.83;1.40;;;11.10;84.40;;;;;;5061721;28;20100;-57
2024/04/03 05:05:54;;;;;;;17.58;3.05;;;11.10;84.40;;;;;;5061658;28;20033;-57
2024/04/03 05:08:19;;;;;;;35.55;4.68;;;11.10;84.50;;;;;;5064031;28;20448;-57
2024/04/03 05:10:56;;;;;;;15.98;3.35;;;11.10;84.70;;;;;;5065029;28;20052;-57
2024/04/03 05:13:21;;;;;;;6.63;2.90;;;11.10;84.80;;;;;;5064835;28;20593;-57
2024/04/03 05:15:47;;;;;;;10.90;2.80;;;11.10;84.80;;;;;;5066164;28;20089;-57
2024/04/03 05:18:13;;;;;;;9.57;2.58;;;11.00;84.80;;;;;;5050275;28;20029;-57
2024/04/03 05:20:39;;;;;;;9.43;2.35;;;11.00;84.80;;;;;;5027515;28;20029;-57
2024/04/03 05:23:05;;;;;;;8.68;2.50;;;11.10;85.00;;;;;;5044267;28;20075;-57
2024/04/03 05:25:31;;;;;;;28.23;4.43;;;11.10;85.10;;;;;;5044984;28;20053;-57
2024/04/03 05:27:56;;;;;;;13.00;2.58;;;11.10;85.20;;;;;;5045517;28;20059;-56
2024/04/03 05:30:22;;;;;;;16.00;2.83;;;11.10;85.10;;;;;;5046342;28;20025;-57
2024/04/03 05:32:47;;;;;;;23.05;5.43;;;11.10;85.10;;;;;;5046307;28;20488;-57
2024/04/03 05:35:16;;;;;;;24.08;3.67;;;11.10;85.00;;;;;;5044892;28;20021;-57
2024/04/03 05:37:44;;;;;;;23.02;4.30;;;11.00;85.00;;;;;;5045289;28;20052;-57
2024/04/03 05:40:10;;;;;;;26.23;4.90;;;11.10;85.00;;;;;;5044218;28;20026;-57
2024/04/03 05:42:36;;;;;;;41.75;5.32;;;11.10;85.00;;;;;;5046018;28;20472;-57
2024/04/03 05:45:02;;;;;;;39.42;6.70;;;11.10;85.10;;;;;;5044210;28;20036;-57
2024/04/03 05:47:28;;;;;;;32.70;6.00;;;11.10;85.10;;;;;;5060829;28;20029;-57
2024/04/03 05:49:55;;;;;;;39.92;6.00;;;11.10;85.30;;;;;;5044275;28;20396;-57
2024/04/03 05:52:24;;;;;;;24.15;5.38;;;11.10;85.40;;;;;;5065579;28;20025;-57
2024/04/03 05:54:50;;;;;;;28.33;4.93;;;11.10;85.50;;;;;;5065643;28;20036;-57
2024/04/03 05:57:16;;;;;;;27.45;4.97;;;11.10;85.80;;;;;;5072502;28;20036;-58
2024/04/03 05:59:42;;;;;;;32.47;5.25;;;11.10;85.80;;;;;;5062866;28;20029;-57
2024/04/03 06:02:08;;;;;;;31.15;5.50;;;11.10;85.90;;;;;;5061775;28;20052;-57
2024/04/03 06:04:33;;;;;;;42.63;5.55;;;11.10;85.90;;;;;;5061706;28;20541;-57
2024/04/03 06:07:00;;;;;;;36.00;5.82;;;11.10;85.90;;;;;;5069530;28;20032;-57
2024/04/03 06:09:26;;;;;;;45.85;5.80;;;11.10;86.00;;;;;;5048680;28;20033;-57
2024/04/03 06:11:51;;;;;;;20.77;5.00;;;11.10;86.00;;;;;;5043546;28;20075;-57
2024/04/03 06:14:17;;;;;;;28.25;5.40;;;11.10;86.10;;;;;;5066740;28;20035;-57
2024/04/03 06:16:43;;;;;;;29.65;4.88;;;11.10;86.10;;;;;;5064533;28;20025;-58
2024/04/03 06:19:12;;;;;;;25.98;5.03;;;11.10;86.20;;;;;;5052948;28;20053;-58
2024/04/03 06:21:38;;;;;;;25.80;4.90;;;11.10;86.10;;;;;;5043279;28;20030;-57
2024/04/03 06:24:05;;;;;;;22.35;5.57;;;11.10;86.20;;;;;;5044845;28;20095;-57
2024/04/03 06:26:32;;;;;;;16.17;4.07;;;11.10;86.20;;;;;;5050338;28;20045;-57
2024/04/03 06:28:59;;;;;;;18.35;4.13;;;11.10;86.20;;;;;;5058163;28;20040;-57
2024/04/03 06:31:25;;;;;;;25.13;5.05;;;11.10;86.20;;;;;;5035114;28;20033;-57
2024/04/03 06:33:52;;;;;;;25.42;4.63;;;11.10;86.30;;;;;;5043100;28;20025;-57
2024/04/03 06:36:18;;;;;;;18.60;4.90;;;11.10;86.30;;;;;;5049795;28;20033;-58
2024/04/03 06:38:44;;;;;;;22.80;4.47;;;11.20;86.40;;;;;;5070336;28;20043;-58
2024/04/03 06:41:09;;;;;;;21.27;4.47;;;11.10;86.30;;;;;;5064636;28;20433;-58
2024/04/03 06:43:35;;;;;;;25.08;4.40;;;11.10;86.20;;;;;;5048724;28;20051;-58
2024/04/03 06:46:00;;;;;;;18.05;4.25;;;11.10;86.20;;;;;;5062318;28;20025;-57
2024/04/03 06:48:26;;;;;;;19.17;4.57;;;11.10;86.30;;;;;;5063359;28;20040;-57
2024/04/03 06:50:52;;;;;;;29.42;4.00;;;11.10;86.30;;;;;;5045149;28;20021;-57
2024/04/03 06:53:19;;;;;;;30.27;4.43;;;11.20;86.30;;;;;;5049254;28;20040;-57
2024/04/03 06:55:58;;;;;;;37.83;5.38;;;11.20;86.50;;;;;;5063500;28;20017;-57
2024/04/03 06:58:24;;;;;;;30.98;5.38;;;11.20;86.50;;;;;;5063595;28;20021;-58
2024/04/03 07:00:49;;;;;;;29.25;5.22;;;11.20;86.30;;;;;;5050872;28;20052;-57
2024/04/03 07:03:16;;;;;;;40.28;5.05;;;11.20;86.20;;;;;;5042017;28;20037;-58
2024/04/03 07:05:44;;;;;;;34.00;5.20;;;11.20;86.30;;;;;;5074459;28;20049;-57
2024/04/03 07:08:12;;;;;;;53.80;6.18;;;11.30;86.70;;;;;;5064782;28;20025;-57
2024/04/03 07:10:38;;;;;;;266.40;27.45;;;11.30;86.80;;;;;;5078033;28;20044;-57
2024/04/03 07:13:04;;;;;;;67.47;8.48;;;11.30;86.90;;;;;;5065603;28;20021;-57
2024/04/03 07:15:32;;;;;;;52.03;7.90;;;11.30;86.70;;;;;;5075177;28;20102;-57
2024/04/03 07:17:57;;;;;;;44.67;6.25;;;11.30;86.60;;;;;;5072733;28;20044;-57
2024/04/03 07:20:25;;;;;;;52.85;6.18;;;11.30;86.60;;;;;;5067326;28;20452;-58
2024/04/03 07:22:53;;;;;;;47.28;6.28;;;11.30;86.60;;;;;;5072938;28;20088;-58
2024/04/03 07:25:19;;;;;;;63.30;8.50;;;11.40;86.60;;;;;;5078663;28;20044;-57
2024/04/03 07:27:45;;;;;;;65.75;9.40;;;11.40;86.80;;;;;;5061193;28;20041;-58
2024/04/03 07:30:11;;;;;;;86.90;12.07;;;11.40;86.90;;;;;;5029108;28;20055;-57
2024/04/03 07:32:36;;;;;;;83.43;9.77;;;11.40;87.20;;;;;;5049627;28;20021;-57
2024/04/03 07:35:02;;;;;;;106.65;11.15;;;11.40;87.40;;;;;;5059655;28;20068;-58
2024/04/03 07:37:28;;;;;;;72.75;9.45;;;11.40;87.30;;;;;;5067006;28;20395;-58
2024/04/03 07:39:53;;;;;;;77.55;8.52;;;11.50;87.30;;;;;;5083119;28;20048;-57
2024/04/03 07:42:19;;;;;;;75.50;9.27;;;11.50;87.20;;;;;;5073132;28;20053;-58
2024/04/03 07:44:44;;;;;;;145.68;14.20;;;11.50;87.20;;;;;;5068054;28;20029;-58
2024/04/03 07:47:10;;;;;;;53.10;7.57;;;11.50;86.80;;;;;;5077012;28;20108;-58
2024/04/03 07:49:36;;;;;;;53.05;6.70;;;11.60;86.70;;;;;;5066779;28;20037;-56
2024/04/03 07:52:01;;;;;;;45.42;6.97;;;11.60;86.80;;;;;;5053115;28;20021;-60
2024/04/03 07:54:27;;;;;;;40.25;7.07;;;11.60;86.80;;;;;;5081664;28;20028;-60
2024/04/03 07:56:53;;;;;;;37.15;6.47;;;11.60;86.70;;;;;;5049115;28;20022;-60
2024/04/03 07:59:19;;;;;;;35.47;6.35;;;11.60;86.60;;;;;;5049107;28;20040;-60
2024/04/03 08:01:44;;;;;;;48.33;6.50;;;11.70;86.60;;;;;;5060873;28;20087;-57
2024/04/03 08:04:10;;;;;;;36.28;6.40;;;11.70;86.70;;;;;;5067129;28;20094;-57
2024/04/03 08:06:36;;;;;;;34.88;5.95;;;11.70;86.60;;;;;;5070290;28;20047;-58
2024/04/03 08:09:01;;;;;;;24.52;5.40;;;11.70;86.60;;;;;;5071426;28;20029;-58
2024/04/03 08:11:27;;;;;;;39.47;5.50;;;11.80;86.40;;;;;;5072898;28;20017;-58
2024/04/03 08:13:53;;;;;;;28.05;5.50;;;11.80;86.20;;;;;;5073214;28;20459;-58
2024/04/03 08:16:18;;;;;;;44.67;6.03;;;11.80;86.10;;;;;;5047845;28;20029;-57
2024/04/03 08:18:47;;;;;;;101.90;10.40;;;11.90;86.30;;;;;;5067650;28;20021;-57
2024/04/03 08:21:13;;;;;;;70.05;7.88;;;11.90;86.50;;;;;;5052512;28;20085;-58
2024/04/03 08:23:38;;;;;;;42.42;6.35;;;11.90;86.70;;;;;;5083504;28;20036;-57
2024/04/03 08:26:08;;;;;;;62.88;8.50;;;12.00;86.90;;;;;;5084113;28;20035;-58
2024/04/03 08:28:36;;;;;;;70.75;7.93;;;12.00;86.80;;;;;;5038706;28;20044;-58
2024/04/03 08:31:01;;;;;;;72.53;10.02;;;12.00;86.80;;;;;;5060184;28;20033;-60
2024/04/03 08:33:27;;;;;;;99.75;10.00;;;12.10;86.80;;;;;;5071192;28;20052;-58
2024/04/03 08:36:02;;;;;;;53.15;6.47;;;12.20;86.80;;;;;;5055085;28;20090;-58
2024/04/03 08:38:28;;;;;;;;;;;12.20;86.70;;;;;;5043574;28;20034;-57
2024/04/03 08:40:56;;;;;;;60.17;6.55;;;12.20;86.50;;;;;;5077090;28;19913;-58
2024/04/03 08:43:23;;;;;;;44.25;5.55;;;12.20;86.50;;;;;;5078886;28;20071;-58
2024/04/03 08:45:49;;;;;;;42.50;6.07;;;12.30;86.30;;;;;;5071872;28;20090;-58
2024/04/03 08:48:19;;;;;;;35.80;5.65;;;12.30;86.20;;;;;;5079809;28;20123;-58
2024/04/03 08:50:46;;;;;;;44.00;5.32;;;12.40;85.90;;;;;;5073787;28;20029;-58
2024/04/03 08:53:16;;;;;;;32.60;5.60;;;12.40;86.00;;;;;;5072580;28;20079;-58
2024/04/03 08:55:42;;;;;;;41.70;5.30;;;12.40;85.90;;;;;;5081876;28;20024;-59
2024/04/03 08:58:08;;;;;;;46.40;6.57;;;12.50;85.60;;;;;;5043885;28;20052;-58
2024/04/03 09:00:34;;;;;;;45.75;6.22;;;12.50;85.50;;;;;;5070451;28;20056;-58
2024/04/03 09:03:00;;;;;;;206.68;21.42;;;12.50;85.40;;;;;;5079181;28;20020;-58
2024/04/03 09:05:25;;;;;;;98.18;10.65;;;12.60;85.70;;;;;;5068231;28;20040;-58
2024/04/03 09:08:05;;;;;;;68.45;8.68;;;12.60;85.90;;;;;;5065454;28;20025;-58
2024/04/03 09:10:31;;;;;;;51.58;5.97;;;12.60;85.90;;;;;;5052723;28;20028;-58
2024/04/03 09:13:04;;;;;;;55.65;6.82;;;12.60;86.00;;;;;;5053143;28;20049;-58
2024/04/03 09:15:30;;;;;;;82.72;7.43;;;12.70;86.00;;;;;;5040521;28;20028;-58
2024/04/03 09:18:03;;;;;;;35.80;5.30;;;12.80;86.00;;;;;;5079427;28;20068;-58
2024/04/03 09:20:28;;;;;;;53.10;5.57;;;12.80;86.40;;;;;;5075302;28;20047;-59
2024/04/03 09:22:56;;;;;;;35.67;4.10;;;12.80;85.70;;;;;;5051032;28;20356;-59
2024/04/03 09:25:27;;;;;;;67.63;5.88;;;12.80;85.70;;;;;;5050869;28;20029;-58
2024/04/03 09:28:11;;;;;;;94.80;10.20;;;12.80;85.70;;;;;;5079739;28;20036;-59
2024/04/03 09:30:45;;;;;;;40.88;4.75;;;12.80;85.70;;;;;;5055114;28;20029;-59
2024/04/03 09:33:11;;;;;;;56.05;6.88;;;12.90;85.50;;;;;;5032023;28;20025;-58
2024/04/03 09:35:39;;;;;;;65.53;7.57;;;12.90;85.50;;;;;;5061114;28;20021;-58
2024/04/03 09:38:04;;;;;;;83.30;9.23;;;12.90;85.60;;;;;;5067674;28;20032;-59
2024/04/03 09:40:33;;;;;;;83.97;9.05;;;12.90;86.00;;;;;;5072663;28;20487;-58
2024/04/03 09:43:11;;;;;;;103.60;8.98;;;12.90;86.20;;;;;;5051468;28;20021;-59
2024/04/03 09:45:36;;;;;;;73.43;7.97;;;13.00;86.30;;;;;;5046925;28;20369;-58
2024/04/03 09:48:03;;;;;;;123.80;12.20;;;13.00;86.20;;;;;;5043264;28;20033;-59
2024/04/03 09:50:42;;;;;;;127.22;12.90;;;13.00;86.50;;;;;;5031755;28;20101;-58
2024/04/03 09:53:16;;;;;;;83.82;10.93;;;13.00;87.30;;;;;;5051540;28;20097;-59
2024/04/03 09:55:42;;;;;;;95.40;11.00;;;13.00;86.60;;;;;;5055932;28;20055;-58
2024/04/03 09:58:18;;;;;;;81.60;10.82;;;13.10;86.50;;;;;;5058182;28;20039;-58
2024/04/03 10:00:59;;;;;;;123.45;11.77;;;13.20;86.60;;;;;;5055585;28;20040;-58
2024/04/03 10:03:27;;;;;;;91.25;12.82;;;13.20;86.80;;;;;;5045059;28;20096;-59
2024/04/03 10:06:10;;;;;;;73.82;9.18;;;13.20;87.20;;;;;;5043466;28;20020;-59
2024/04/03 10:08:45;;;;;;;126.82;14.82;;;13.20;86.90;;;;;;5070898;28;20360;-59
2024/04/03 10:11:13;;;;;;;168.80;16.75;;;13.20;87.50;;;;;;5033046;28;20029;-59
2024/04/03 10:13:39;;;;;;;135.50;15.40;;;13.30;87.90;;;;;;5044394;28;20029;-58
2024/04/03 10:16:06;;;;;;;150.55;16.38;;;13.30;87.90;;;;;;5053909;28;20048;-59
2024/04/03 10:18:39;;;;;;;161.38;18.30;;;13.30;87.90;;;;;;5045161;28;20041;-59
2024/04/03 10:21:08;;;;;;;124.32;15.35;;;13.30;88.10;;;;;;5060274;28;20029;-58
2024/04/03 10:23:43;;;;;;;165.20;16.42;;;13.40;88.10;;;;;;5045097;28;20036;-59
2024/04/03 10:26:10;;;;;;;145.65;14.43;;;13.40;88.20;;;;;;5050693;28;20055;-59
2024/04/03 10:28:36;;;;;;;147.35;15.80;;;13.40;88.30;;;;;;5046905;28;20029;-59
2024/04/03 10:31:02;;;;;;;131.77;16.45;;;13.40;88.20;;;;;;5045469;28;20063;-58
2024/04/03 10:33:28;;;;;;;183.38;17.85;;;13.40;88.40;;;;;;5026595;28;20026;-59
2024/04/03 10:35:54;;;;;;;157.93;16.33;;;13.50;88.60;;;;;;5053644;28;20036;-58
2024/04/03 10:38:20;;;;;;;167.80;17.33;;;13.50;88.70;;;;;;5033637;28;20087;-59
2024/04/03 10:40:48;;;;;;;140.32;15.98;;;13.50;88.80;;;;;;5044131;28;20052;-58
2024/04/03 10:43:14;;;;;;;120.45;12.93;;;13.50;88.70;;;;;;5064039;28;20045;-59
2024/04/03 10:45:40;;;;;;;175.27;17.90;;;13.50;89.20;;;;;;5057251;28;20087;-59
2024/04/03 10:48:11;;;;;;;147.48;16.38;;;13.50;88.80;;;;;;5061493;28;20075;-58
2024/04/03 10:50:40;;;;;;;125.68;16.50;;;13.50;89.10;;;;;;5063107;28;20033;-59
2024/04/03 10:53:09;;;;;;;178.25;18.27;;;13.50;89.20;;;;;;5055687;28;20029;-60
2024/04/03 10:55:36;;;;;;;192.77;17.75;;;13.50;89.00;;;;;;5045500;28;20044;-59
2024/04/03 10:58:05;;;;;;;190.77;18.50;;;13.50;89.40;;;;;;5040701;28;20029;-58
2024/04/03 11:00:37;;;;;;;180.73;19.83;;;13.60;89.30;;;;;;5041367;28;20126;-59
2024/04/03 11:03:04;;;;;;;259.00;27.77;;;13.60;90.00;;;;;;5052014;28;20028;-59
2024/04/03 11:05:31;;;;;;;90.47;10.13;;;13.60;89.30;;;;;;5051036;28;20079;-59
2024/04/03 11:07:57;;;;;;;88.70;11.73;;;13.60;89.00;;;;;;5060286;28;20037;-59
2024/04/03 11:10:23;;;;;;;144.32;16.50;;;13.60;88.90;;;;;;5039969;28;20079;-59
2024/04/03 11:12:48;;;;;;;106.00;13.90;;;13.60;89.20;;;;;;5056961;28;20025;-59
2024/04/03 11:15:20;;;;;;;195.23;20.23;;;13.70;89.30;;;;;;5045029;28;20033;-59
2024/04/03 11:17:47;;;;;;;202.43;21.48;;;13.70;89.60;;;;;;5055304;28;20032;-59
2024/04/03 11:20:12;;;;;;;268.13;26.30;;;13.70;89.80;;;;;;5030469;28;20052;-59
2024/04/03 11:22:38;;;;;;;206.75;19.38;;;13.80;89.50;;;;;;5042626;28;20128;-59
2024/04/03 11:25:07;;;;;;;161.23;18.40;;;13.80;89.30;;;;;;5063145;28;20093;-59
2024/04/03 11:27:33;;;;;;;207.50;21.10;;;13.80;89.50;;;;;;5057646;28;20633;-59
2024/04/03 11:29:59;;;;;;;170.30;22.10;;;13.90;89.70;;;;;;5057667;28;20057;-59
2024/04/03 11:32:25;;;;;;;162.48;19.52;;;13.90;89.70;;;;;;5074960;28;20020;-59
2024/04/03 11:34:51;;;;;;;182.68;20.27;;;13.90;89.60;;;;;;5065489;28;20025;-59
2024/04/03 11:37:17;;;;;;;138.98;15.57;;;14.00;89.90;;;;;;5070238;28;20100;-59
2024/04/03 11:39:43;;;;;;;126.47;14.48;;;14.00;89.80;;;;;;5059532;28;20033;-59
2024/04/03 11:42:08;;;;;;;113.95;13.65;;;14.00;90.00;;;;;;5066178;28;20117;-59
2024/04/03 11:44:34;;;;;;;125.70;15.55;;;14.00;89.80;;;;;;5057202;28;20029;-59
2024/04/03 11:47:00;;;;;;;150.20;15.05;;;14.00;90.00;;;;;;5058800;28;22708;-59
2024/04/03 11:49:26;;;;;;;148.82;15.13;;;14.10;90.10;;;;;;5066774;28;20025;-59
2024/04/03 11:51:52;;;;;;;130.30;14.35;;;14.10;90.10;;;;;;5053585;28;20021;-59
2024/04/03 11:54:17;;;;;;;128.95;16.23;;;14.10;90.00;;;;;;5045902;28;20037;-59
2024/04/03 11:56:43;;;;;;;124.03;14.18;;;14.10;89.80;;;;;;5060964;28;20171;-59
2024/04/03 11:59:09;;;;;;;100.30;12.88;;;14.20;89.70;;;;;;5047173;28;20336;-59
2024/04/03 12:01:35;;;;;;;114.50;14.52;;;14.20;89.60;;;;;;5056308;28;20036;-59
2024/04/03 12:04:02;;;;;;;116.88;13.27;;;14.20;89.50;;;;;;5046014;28;20092;-59
2024/04/03 12:06:29;;;;;;;137.65;13.48;;;14.30;89.50;;;;;;5053072;28;20025;-59
2024/04/03 12:08:55;;;;;;;122.43;14.68;;;14.30;89.50;;;;;;5052722;28;20135;-59
2024/04/03 12:11:21;;;;;;;122.53;14.30;;;14.40;89.60;;;;;;5055845;28;20113;-59
2024/04/03 12:13:46;;;;;;;141.27;15.18;;;14.40;89.60;;;;;;5064689;28;20025;-59
2024/04/03 12:16:13;;;;;;;157.55;18.50;;;14.40;89.60;;;;;;5055519;28;20132;-59
2024/04/03 12:18:49;;;;;;;195.18;20.55;;;14.50;89.60;;;;;;5064200;28;20036;-59
2024/04/03 12:21:18;;;;;;;145.82;18.20;;;14.50;89.70;;;;;;5050759;28;20081;-58
2024/04/03 12:23:47;;;;;;;132.70;14.93;;;14.50;89.80;;;;;;5055677;28;20116;-59
2024/04/03 12:26:13;;;;;;;173.80;16.15;;;14.50;89.90;;;;;;5058418;28;20025;-59
2024/04/03 12:28:39;;;;;;;128.23;13.85;;;14.50;90.00;;;;;;5055807;28;20094;-59
2024/04/03 12:31:05;;;;;;;141.27;14.65;;;14.50;90.10;;;;;;5052953;28;20020;-59
2024/04/03 12:33:31;;;;;;;153.52;15.52;;;14.50;90.10;;;;;;5052106;28;20032;-59
2024/04/03 12:35:57;;;;;;;176.18;19.45;;;14.50;90.30;;;;;;5054152;28;20018;-58
2024/04/03 12:38:22;;;;;;;163.00;18.85;;;14.50;90.40;;;;;;5048914;28;20045;-59